Time;durP1;ratioP1;P1;durP2;ratioP2;P2;SDS_P1;SDS_P2;PMS_P1;PMS_P2;Temp;Humidity;BMP_temperature;BMP_pressure;BME280_temperature;BME280_humidity;BME280_pressure;Samples;Min_cycle;Max_cycle;Signal;HPM_P1;HPM_P2
2022/06/17 00:01:52;;;;;;;11.40;2.45;;;;;;;20.63;37.89;99087.47;5055659;28;20146;-72
2022/06/17 00:04:17;;;;;;;9.20;2.80;;;;;;;20.65;38.05;99106.97;5059835;28;20044;-73
2022/06/17 00:06:52;;;;;;;10.77;2.45;;;;;;;20.95;37.47;99105.78;5093952;28;20093;-73
2022/06/17 00:09:20;;;;;;;8.45;2.28;;;;;;;20.92;37.61;99102.72;5076152;28;20101;-74
2022/06/17 00:11:46;;;;;;;11.52;2.40;;;;;;;20.79;37.62;99103.78;5059467;28;20044;-73
2022/06/17 00:14:20;;;;;;;4.20;2.20;;;;;;;20.84;37.72;99097.66;5059533;28;20197;-73
2022/06/17 00:16:47;;;;;;;11.00;2.35;;;;;;;20.67;37.70;99085.94;5026446;28;20044;-72
2022/06/17 00:19:13;;;;;;;7.80;2.60;;;;;;;20.72;37.65;99102.25;5059302;28;20561;-74
2022/06/17 00:21:43;;;;;;;9.40;2.55;;;;;;;20.69;37.40;99071.19;5042615;28;20535;-72
2022/06/17 00:24:15;;;;;;;4.18;2.00;;;;;;;20.84;37.36;99074.19;5058909;28;20047;-73
2022/06/17 00:26:42;;;;;;;14.80;2.70;;;;;;;20.80;37.67;99096.50;5059118;28;20044;-73
2022/06/17 00:29:14;;;;;;;5.97;2.50;;;;;;;20.90;37.44;99097.53;5059054;28;20036;-73
2022/06/17 00:31:40;;;;;;;5.72;2.30;;;;;;;20.66;38.01;99100.50;5092592;28;20047;-71
2022/06/17 00:34:06;;;;;;;4.53;2.10;;;;;;;20.65;38.20;99098.88;5042381;28;20040;-72
2022/06/17 00:36:32;;;;;;;6.90;2.30;;;;;;;20.68;37.85;99101.09;5058104;28;20069;-71
2022/06/17 00:38:58;;;;;;;5.22;2.38;;;;;;;20.50;38.35;99101.19;5058705;28;20485;-72
2022/06/17 00:41:36;;;;;;;5.78;2.38;;;;;;;20.77;38.12;99113.97;5042314;28;20523;-71
2022/06/17 00:44:17;;;;;;;4.55;2.40;;;;;;;20.82;38.49;99106.00;5058738;28;20040;-71
2022/06/17 00:46:47;;;;;;;7.72;2.65;;;;;;;20.68;38.12;99114.59;5040496;28;20040;-71
2022/06/17 00:49:42;;;;;;;6.22;2.40;;;;;;;20.82;38.12;99119.50;5058446;28;20036;-72
2022/06/17 00:52:19;;;;;;;11.13;2.70;;;;;;;20.77;38.48;99119.38;5039231;28;20054;-71
2022/06/17 00:54:53;;;;;;;4.45;2.78;;;;;;;20.70;38.23;99118.69;5042315;28;20146;-71
2022/06/17 00:57:34;;;;;;;6.65;2.90;;;;;;;20.51;38.46;99097.47;5058686;28;20044;-71
2022/06/17 01:00:15;;;;;;;5.75;2.55;;;;;;;20.69;38.27;99118.91;5042304;28;20040;-72
2022/06/17 01:02:46;;;;;;;6.93;3.00;;;;;;;20.64;38.34;99116.94;5058594;28;20058;-72
2022/06/17 01:05:13;;;;;;;11.07;2.70;;;;;;;20.48;38.57;99127.59;5058859;28;20484;-72
2022/06/17 01:07:49;;;;;;;5.65;2.58;;;;;;;20.61;38.76;99128.19;5075530;28;20495;-72
2022/06/17 01:10:16;;;;;;;9.18;3.33;;;;;;;20.36;38.96;99132.19;5058696;28;20060;-72
2022/06/17 01:12:49;;;;;;;5.22;2.90;;;;;;;20.53;38.92;99127.69;5075168;28;20043;-72
2022/06/17 01:15:17;;;;;;;13.27;3.25;;;;;;;20.44;39.00;99131.81;5041537;28;20047;-72
2022/06/17 01:17:45;;;;;;;7.88;2.95;;;;;;;20.29;39.16;99126.03;5059154;28;20499;-73
2022/06/17 01:20:13;;;;;;;6.65;2.88;;;;;;;20.30;39.17;99123.13;5042383;28;20044;-72
2022/06/17 01:23:02;;;;;;;9.40;3.50;;;;;;;20.61;38.63;99122.78;5074884;28;20518;-71
2022/06/17 01:25:34;;;;;;;12.63;2.70;;;;;;;20.63;38.62;99125.25;5024861;28;20045;-71
2022/06/17 01:28:09;;;;;;;8.43;2.97;;;;;;;20.63;38.49;99123.38;5058075;28;20131;-72
2022/06/17 01:30:48;;;;;;;6.43;2.65;;;;;;;20.67;38.81;99121.84;5057770;28;20044;-72
2022/06/17 01:33:21;;;;;;;7.05;2.72;;;;;;;20.67;38.44;99121.03;5024880;28;20051;-71
2022/06/17 01:36:00;;;;;;;5.32;2.70;;;;;;;20.80;38.19;99120.78;5058910;28;20039;-73
2022/06/17 01:38:28;;;;;;;6.00;2.63;;;;;;;20.71;38.26;99122.22;5026872;28;20040;-71
2022/06/17 01:40:55;;;;;;;5.38;2.50;;;;;;;20.64;38.25;99116.94;5075981;28;20071;-71
2022/06/17 01:43:24;;;;;;;4.93;2.80;;;;;;;20.71;38.24;99119.50;5058680;28;20076;-74
2022/06/17 01:45:54;;;;;;;5.93;2.35;;;;;;;20.55;38.54;99112.94;5041910;28;20082;-74
2022/06/17 01:48:23;;;;;;;6.47;2.80;;;;;;;20.55;38.61;99117.50;5025034;28;20044;-74
2022/06/17 01:50:50;;;;;;;8.85;2.97;;;;;;;20.55;38.69;99117.50;5057716;28;20560;-72
2022/06/17 01:53:20;;;;;;;2.75;2.45;;;;;;;20.70;38.48;99120.56;5057755;28;20046;-74
2022/06/17 01:55:54;;;;;;;5.18;2.63;;;;;;;20.71;38.34;99114.13;5057631;28;20048;-73
2022/06/17 01:58:23;;;;;;;6.45;2.90;;;;;;;20.73;38.54;99130.88;5058678;28;20059;-72
2022/06/17 02:00:49;;;;;;;8.73;3.00;;;;;;;20.43;39.08;99130.19;5061137;28;20093;-73
2022/06/17 02:03:23;;;;;;;14.75;5.47;;;;;;;20.49;39.22;99123.84;5043504;28;20155;-72
2022/06/17 02:06:06;;;;;;;8.40;2.80;;;;;;;20.35;39.46;99128.66;5024326;28;20444;-72
2022/06/17 02:08:32;;;;;;;4.50;2.53;;;;;;;20.19;39.48;99126.63;5057168;28;20059;-73
2022/06/17 02:10:59;;;;;;;6.15;2.67;;;;;;;20.19;39.74;99132.00;5040698;28;20052;-73
2022/06/17 02:13:25;;;;;;;7.45;2.85;;;;;;;20.21;39.86;99132.59;5040651;28;20048;-73
2022/06/17 02:16:11;;;;;;;5.78;2.70;;;;;;;20.11;39.45;99110.75;5045820;28;20105;-73
2022/06/17 02:19:08;;;;;;;8.35;2.40;;;;;;;20.30;39.20;99138.47;5061438;28;20122;-74
2022/06/17 02:21:39;;;;;;;10.73;2.85;;;;;;;20.39;39.18;99123.63;5040657;28;20047;-73
2022/06/17 02:24:05;;;;;;;7.25;2.50;;;;;;;20.27;39.70;99138.94;5023987;28;20458;-74
2022/06/17 02:26:34;;;;;;;7.38;2.72;;;;;;;20.47;39.66;99136.72;5073037;28;20051;-73
2022/06/17 02:29:06;;;;;;;8.02;2.65;;;;;;;20.70;39.26;99136.75;5024188;28;20039;-72
2022/06/17 02:31:33;;;;;;;8.50;2.90;;;;;;;20.59;38.75;99114.09;5073796;28;20602;-73
2022/06/17 02:33:59;;;;;;;8.05;2.70;;;;;;;20.75;38.88;99135.00;5074318;28;20042;-74
2022/06/17 02:36:31;;;;;;;6.38;3.00;;;;;;;20.94;38.67;99139.19;5040967;28;20093;-74
2022/06/17 02:38:59;;;;;;;22.80;3.42;;;;;;;20.84;38.91;99144.38;5040885;28;20123;-73
2022/06/17 02:41:26;;;;;;;10.27;2.75;;;;;;;20.90;38.85;99138.03;5056967;28;20173;-72
2022/06/17 02:44:03;;;;;;;6.32;2.67;;;;;;;21.01;38.70;99139.94;5056493;28;20056;-72
2022/06/17 02:46:40;;;;;;;5.93;2.47;;;;;;;20.90;38.92;99110.22;5056866;28;20134;-72
2022/06/17 02:49:13;;;;;;;13.82;3.08;;;;;;;21.04;38.92;99134.06;5056284;28;20608;-73
2022/06/17 02:51:42;;;;;;;9.38;2.63;;;;;;;21.07;38.70;99141.69;5056633;28;20048;-72
2022/06/17 02:54:15;;;;;;;8.88;2.65;;;;;;;21.13;38.77;99134.50;5023748;28;20150;-73
2022/06/17 02:56:44;;;;;;;9.07;2.70;;;;;;;21.24;38.67;99130.97;5056553;28;20051;-72
2022/06/17 02:59:18;;;;;;;6.20;2.20;;;;;;;21.30;38.49;99128.13;5039450;28;20044;-72
2022/06/17 03:01:48;;;;;;;7.50;2.30;;;;;;;21.35;38.13;99130.13;5040712;28;20040;-75
2022/06/17 03:04:33;;;;;;;5.55;2.15;;;;;;;21.22;38.24;99135.78;5028380;28;20115;-74
2022/06/17 03:07:02;;;;;;;4.53;1.95;;;;;;;21.25;38.27;99132.63;5040280;28;20067;-74
2022/06/17 03:09:30;;;;;;;7.05;2.75;;;;;;;21.19;38.37;99130.84;5056256;28;20052;-74
2022/06/17 03:12:04;;;;;;;3.95;2.20;;;;;;;21.22;38.48;99142.00;5073133;28;20044;-74
2022/06/17 03:14:38;;;;;;;8.95;1.98;;;;;;;21.54;38.28;99142.41;5056574;28;20079;-75
2022/06/17 03:17:07;;;;;;;4.82;2.20;;;;;;;21.61;38.48;99149.31;5040053;28;20202;-74
2022/06/17 03:19:35;;;;;;;5.43;2.30;;;;;;;21.57;38.74;99140.03;5072644;28;20433;-74
2022/06/17 03:22:09;;;;;;;9.00;2.75;;;;;;;21.77;38.73;99139.66;5090881;28;20461;-73
2022/06/17 03:24:49;;;;;;;9.40;2.72;;;;;;;21.66;38.59;99116.94;5023096;28;20452;-74
2022/06/17 03:27:45;;;;;;;4.45;2.33;;;;;;;21.81;38.59;99137.25;5056089;28;20449;-74
2022/06/17 03:30:16;;;;;;;11.00;2.10;;;;;;;21.80;38.89;99141.88;5073146;28;20051;-76
2022/06/17 03:32:45;;;;;;;13.05;2.58;;;;;;;21.58;39.25;99146.25;5054137;28;20058;-72
2022/06/17 03:35:18;;;;;;;6.35;2.58;;;;;;;21.94;39.38;99140.47;5070552;28;20472;-71
2022/06/17 03:37:51;;;;;;;7.47;2.10;;;;;;;22.24;38.74;99132.91;5070432;28;20071;-71
2022/06/17 03:40:24;;;;;;;6.85;2.83;;;;;;;22.66;37.89;99136.88;5074892;28;20071;-72
2022/06/17 03:42:55;;;;;;;12.70;2.38;;;;;;;23.05;37.25;99148.53;5059489;28;20577;-73
2022/06/17 03:45:27;;;;;;;7.03;2.42;;;;;;;23.28;36.76;99132.06;5059297;28;20205;-72
2022/06/17 03:48:13;;;;;;;;;;;;;;;23.51;36.16;99141.84;5059923;28;20055;-73
2022/06/17 03:50:47;;;;;;;4.57;2.20;;;;;;;23.27;36.39;99116.88;5041238;28;19927;-72
2022/06/17 03:53:26;;;;;;;6.43;2.20;;;;;;;23.53;36.22;99140.53;5058690;28;20048;-72
2022/06/17 03:55:55;;;;;;;3.95;2.00;;;;;;;23.66;35.88;99136.59;5041696;28;20293;-71
2022/06/17 03:58:22;;;;;;;4.70;2.10;;;;;;;23.85;35.34;99146.84;5041485;28;20066;-72
2022/06/17 04:01:19;;;;;;;5.03;2.10;;;;;;;23.82;35.47;99144.66;5043209;28;20052;-74
2022/06/17 04:03:57;;;;;;;6.80;1.90;;;;;;;23.74;35.79;99142.38;5058108;28;20044;-75
2022/06/17 04:06:28;;;;;;;9.20;2.38;;;;;;;23.86;35.73;99139.53;5058015;28;20040;-75
2022/06/17 04:08:59;;;;;;;4.28;1.80;;;;;;;23.65;35.78;99143.13;5025160;28;20043;-72
2022/06/17 04:11:37;;;;;;;5.18;2.00;;;;;;;23.91;35.60;99137.69;5057893;28;20131;-70
2022/06/17 04:14:06;;;;;;;4.20;2.17;;;;;;;23.78;35.38;99099.31;5057954;28;20155;-70
2022/06/17 04:16:47;;;;;;;3.17;1.98;;;;;;;24.04;35.22;99145.47;5041854;28;20539;-69
2022/06/17 04:19:17;;;;;;;6.97;1.90;;;;;;;23.95;35.59;99127.97;5074158;28;20500;-70
2022/06/17 04:22:13;;;;;;;7.03;1.80;;;;;;;24.00;35.74;99138.09;5046036;28;20048;-70
2022/06/17 04:25:00;;;;;;;5.85;1.80;;;;;;;24.08;35.47;99143.06;5028282;28;20036;-70
2022/06/17 04:30:24;;;;;;;7.05;2.15;;;;;;;24.16;35.43;99129.00;5074314;28;20051;-69
2022/06/17 04:32:56;;;;;;;6.03;2.25;;;;;;;24.19;35.23;99140.16;5094208;28;20399;-69
2022/06/17 04:35:22;;;;;;;;;;;;;;;24.33;34.83;99138.66;5061732;28;20086;-71
2022/06/17 04:37:48;;;;;;;3.47;1.80;;;;;;;24.08;35.08;99135.72;5077479;28;19920;-71
2022/06/17 04:40:48;;;;;;;5.82;2.03;;;;;;;24.31;35.23;99137.31;5096404;28;20129;-68
2022/06/17 04:43:47;;;;;;;5.07;1.67;;;;;;;24.35;35.61;99139.25;5069030;28;20040;-68
2022/06/17 04:46:18;;;;;;;;;;;;;;;24.56;35.11;99137.47;5078106;28;20039;-69
2022/06/17 04:48:44;;;;;;;5.25;1.50;;;;;;;24.41;34.99;99134.66;5060051;28;19973;-69
2022/06/17 04:51:11;;;;;;;5.28;1.27;;;;;;;24.54;34.95;99128.81;5076799;28;20040;-69
2022/06/17 04:53:42;;;;;;;4.35;1.45;;;;;;;24.69;34.53;99135.16;5060646;28;20051;-70
2022/06/17 04:56:35;;;;;;;3.45;1.30;;;;;;;24.71;33.77;99138.44;5079804;28;20054;-69
2022/06/17 04:59:37;;;;;;;4.85;1.80;;;;;;;24.91;33.66;99116.00;5079730;28;20051;-69
2022/06/17 05:02:13;;;;;;;4.07;1.52;;;;;;;25.21;34.15;99132.50;5076445;28;20053;-69
2022/06/17 05:05:14;;;;;;;5.90;1.50;;;;;;;25.10;33.26;99141.69;5071942;28;20146;-70
2022/06/17 05:07:46;;;;;;;1.63;1.15;;;;;;;25.13;32.65;99138.44;5077151;28;20112;-70
2022/06/17 05:10:18;;;;;;;2.70;1.30;;;;;;;25.25;32.30;99133.59;5061686;28;20052;-69
2022/06/17 05:12:48;;;;;;;5.45;1.40;;;;;;;25.41;31.79;99146.22;5059029;28;20039;-71
2022/06/17 05:15:19;;;;;;;6.75;1.30;;;;;;;25.52;32.66;99147.91;5043483;28;20043;-70
2022/06/17 05:17:46;;;;;;;7.18;1.50;;;;;;;25.35;32.78;99139.13;5076912;28;20103;-71
2022/06/17 05:20:18;;;;;;;4.65;1.52;;;;;;;25.50;33.11;99146.50;5042036;28;20558;-74
2022/06/17 05:22:59;;;;;;;7.03;4.30;;;;;;;25.52;32.72;99150.63;5042658;28;20134;-75
2022/06/17 05:25:28;;;;;;;5.65;1.48;;;;;;;25.38;32.64;99135.88;5093061;28;20541;-74
2022/06/17 05:27:54;;;;;;;4.63;1.00;;;;;;;25.41;32.46;99146.22;5065879;28;20612;-74
2022/06/17 05:30:21;;;;;;;4.05;1.30;;;;;;;25.33;32.82;99141.28;5057541;28;20086;-75
2022/06/17 05:32:50;;;;;;;5.28;1.30;;;;;;;25.51;32.43;99148.16;5072921;28;20075;-71
2022/06/17 05:35:20;;;;;;;4.68;1.30;;;;;;;25.45;32.63;99136.44;5056998;28;20094;-70
2022/06/17 05:37:47;;;;;;;9.52;1.38;;;;;;;25.17;32.84;99128.66;5021638;28;20036;-69
2022/06/17 05:40:14;;;;;;;4.15;1.58;;;;;;;25.41;32.72;99146.22;5053170;28;20043;-69
2022/06/17 05:42:44;;;;;;;2.22;1.40;;;;;;;25.62;32.19;99133.50;5052564;28;20048;-69
2022/06/17 05:45:18;;;;;;;6.85;1.02;;;;;;;25.51;32.31;99129.13;5053761;28;20070;-68
2022/06/17 05:48:02;;;;;;;2.63;1.40;;;;;;;25.59;32.14;99134.03;5069489;28;20044;-69
2022/06/17 05:50:50;;;;;;;6.68;1.20;;;;;;;25.55;31.98;99136.50;5072915;28;20105;-69
2022/06/17 05:53:30;;;;;;;5.60;1.63;;;;;;;25.83;31.16;99132.50;5040823;28;20040;-69
2022/06/17 05:56:16;;;;;;;3.55;1.48;;;;;;;26.02;31.15;99131.72;5055224;28;20060;-68
2022/06/17 05:58:43;;;;;;;2.95;1.38;;;;;;;26.21;31.34;99124.69;5039775;28;20149;-69
2022/06/17 06:01:09;;;;;;;7.78;1.30;;;;;;;26.34;30.83;99115.13;5055409;28;20052;-69
2022/06/17 06:03:37;;;;;;;3.35;1.20;;;;;;;26.72;29.97;99124.69;5055077;28;20051;-70
2022/06/17 06:06:05;;;;;;;5.43;1.30;;;;;;;27.06;29.18;99114.81;5055604;28;20051;-69
2022/06/17 06:08:32;;;;;;;2.20;0.95;;;;;;;27.26;28.63;99120.22;5022766;28;20043;-69
2022/06/17 06:10:59;;;;;;;1.95;0.90;;;;;;;27.40;27.84;99107.63;5052139;28;20067;-69
2022/06/17 06:13:27;;;;;;;6.82;0.88;;;;;;;27.44;27.13;99106.78;5051623;28;20075;-68
2022/06/17 06:15:59;;;;;;;1.65;0.95;;;;;;;27.35;27.86;99107.66;5036399;28;20056;-68
2022/06/17 06:18:33;;;;;;;4.57;1.17;;;;;;;27.70;28.13;99105.56;5070180;28;20480;-69
2022/06/17 06:21:06;;;;;;;4.97;1.30;;;;;;;27.90;28.45;99102.75;5035938;28;20040;-69
2022/06/17 06:23:36;;;;;;;4.72;1.48;;;;;;;28.21;27.51;99107.97;5051923;28;20090;-70
2022/06/17 06:26:03;;;;;;;3.63;1.00;;;;;;;28.32;27.27;99096.69;5069792;28;20482;-69
2022/06/17 06:28:30;;;;;;;1.38;1.05;;;;;;;28.38;27.21;99102.91;5051542;28;20071;-68
2022/06/17 06:31:30;;;;;;;3.33;1.20;;;;;;;28.57;27.10;99101.94;5053563;28;20148;-69
2022/06/17 06:33:59;;;;;;;2.95;1.30;;;;;;;28.03;27.66;99090.38;5051779;28;20383;-69
2022/06/17 06:36:32;;;;;;;5.95;1.35;;;;;;;28.21;27.52;99106.06;5020824;28;20154;-69
2022/06/17 06:38:59;;;;;;;2.17;1.05;;;;;;;27.86;27.91;99104.34;5068242;28;20074;-68
2022/06/17 06:41:26;;;;;;;4.93;0.90;;;;;;;27.85;27.63;99094.56;5051407;28;20480;-69
2022/06/17 06:43:52;;;;;;;2.03;1.13;;;;;;;27.86;28.03;99068.06;5043466;28;20127;-69
2022/06/17 06:46:44;;;;;;;2.50;0.90;;;;;;;27.98;27.07;99090.41;5075417;28;20040;-69
2022/06/17 06:49:22;;;;;;;1.88;1.10;;;;;;;28.11;27.21;99099.88;5053119;28;20125;-69
2022/06/17 06:51:48;;;;;;;2.25;1.23;;;;;;;28.02;27.18;99093.41;5034371;28;20094;-69
2022/06/17 06:54:14;;;;;;;2.35;1.30;;;;;;;28.13;27.66;99084.81;5050990;28;20557;-68
2022/06/17 06:56:39;;;;;;;1.52;1.20;;;;;;;28.25;27.57;99093.47;5051238;28;20054;-68
2022/06/17 06:59:05;;;;;;;2.08;1.23;;;;;;;28.48;27.22;99090.00;5018486;28;20062;-69
2022/06/17 07:01:31;;;;;;;1.50;0.88;;;;;;;28.56;27.28;99089.41;5018386;28;20044;-69
2022/06/17 07:03:58;;;;;;;1.27;0.82;;;;;;;28.45;26.68;99087.00;5050825;28;20050;-69
2022/06/17 07:06:24;;;;;;;3.53;0.90;;;;;;;28.66;26.13;99088.50;5035110;28;20140;-71
2022/06/17 07:08:50;;;;;;;0.90;0.82;;;;;;;29.09;25.97;99088.31;5037083;28;20127;-69
2022/06/17 07:11:16;;;;;;;2.13;0.80;;;;;;;29.08;24.87;99077.66;5067769;28;20071;-70
2022/06/17 07:13:43;;;;;;;3.03;0.90;;;;;;;29.53;24.70;99088.84;5017544;28;20048;-70
2022/06/17 07:16:11;;;;;;;1.73;1.02;;;;;;;30.11;24.51;99075.69;5068319;28;20500;-72
2022/06/17 07:18:51;;;;;;;;;;;;;;;;;;;;;
2022/06/17 07:21:20;;;;;;;3.13;0.80;;;;;;;30.90;22.81;99071.88;5069107;28;20434;-73
2022/06/17 07:23:46;;;;;;;3.10;0.90;;;;;;;31.39;22.16;99061.03;5033714;28;20048;-73
2022/06/17 07:26:24;;;;;;;3.50;0.82;;;;;;;32.01;21.56;99073.94;5067954;28;20289;-72
2022/06/17 07:28:52;;;;;;;4.63;1.40;;;;;;;31.45;22.05;99076.25;5068949;28;20512;-74
2022/06/17 07:31:18;;;;;;;5.00;0.98;;;;;;;31.86;21.80;99071.50;5068674;28;20044;-76
2022/06/17 07:33:44;;;;;;;1.98;1.00;;;;;;;32.05;21.03;99077.66;5067592;28;20067;-75
2022/06/17 07:39:53;;;;;;;2.47;0.90;;;;;;;33.01;20.28;99061.47;5066350;28;20325;-74
2022/06/17 07:41:43;;;;;;;2.78;0.93;;;;;;;33.38;19.82;99075.53;5066587;28;20052;-76
2022/06/17 07:44:08;;;;;;;3.22;0.90;;;;;;;34.44;18.66;99077.72;5068426;28;20524;-76
2022/06/17 07:46:34;;;;;;;3.25;1.15;;;;;;;35.68;17.32;99058.53;5051237;28;20040;-75
2022/06/17 07:49:00;;;;;;;1.23;0.90;;;;;;;36.80;16.52;99072.19;5068580;28;20036;-74
2022/06/17 07:51:27;;;;;;;2.75;1.10;;;;;;;38.02;15.27;99072.59;5018688;28;20547;-76
2022/06/17 07:53:52;;;;;;;1.58;0.80;;;;;;;38.84;14.11;99064.63;5051871;28;20504;-76
2022/06/17 07:56:20;;;;;;;3.63;1.35;;;;;;;39.98;13.00;99056.69;5018887;28;20086;-72
2022/06/17 07:58:46;;;;;;;2.95;0.90;;;;;;;41.30;11.15;99073.53;5051935;28;20412;-72
2022/06/17 08:01:13;;;;;;;2.38;0.80;;;;;;;42.12;10.63;99070.75;5051371;28;20040;-71
2022/06/17 08:03:39;;;;;;;1.13;0.68;;;;;;;40.60;11.37;99056.34;5054219;28;20043;-71
2022/06/17 08:06:06;;;;;;;1.65;0.80;;;;;;;37.78;13.57;99069.88;5071775;28;20399;-79
2022/06/17 08:08:33;;;;;;;3.35;1.05;;;;;;;36.24;14.81;99050.78;5055297;28;20506;-71
2022/06/17 08:11:00;;;;;;;3.92;0.80;;;;;;;35.90;15.71;99040.84;5072517;28;20086;-70
2022/06/17 08:13:26;;;;;;;2.63;1.30;;;;;;;35.13;16.53;99022.00;5038003;28;20399;-72
2022/06/17 08:15:54;;;;;;;4.00;0.88;;;;;;;34.62;16.81;99049.78;5071426;28;20040;-71
2022/06/17 08:18:22;;;;;;;;;;;;;;;34.17;17.44;99048.53;5088475;28;20067;-71
2022/06/17 08:20:48;;;;;;;3.33;1.00;;;;;;;34.05;17.78;99054.72;5054506;28;19916;-71
2022/06/17 08:23:14;;;;;;;3.45;1.10;;;;;;;33.68;17.92;99044.31;5038756;28;20059;-72
2022/06/17 08:25:42;;;;;;;3.13;1.55;;;;;;;33.76;18.55;99045.44;5058415;28;20170;-73
2022/06/17 08:28:10;;;;;;;6.95;1.20;;;;;;;33.69;18.53;99051.44;5091913;28;20130;-71
2022/06/17 08:30:39;;;;;;;3.65;1.25;;;;;;;33.30;18.71;99043.25;5091951;28;20047;-78
2022/06/17 08:33:05;;;;;;;1.83;1.40;;;;;;;33.44;19.00;99048.66;5092677;28;20097;-70
2022/06/17 08:35:37;;;;;;;3.35;1.40;;;;;;;33.39;18.88;99040.53;5058421;28;20050;-71
2022/06/17 08:38:08;;;;;;;3.67;1.00;;;;;;;33.32;18.69;99024.47;5075542;28;20423;-71
2022/06/17 08:40:39;;;;;;;4.13;1.00;;;;;;;33.32;18.68;99049.22;5075574;28;20129;-70
2022/06/17 08:43:14;;;;;;;3.63;1.05;;;;;;;33.29;19.12;99049.09;5074930;28;20093;-83
2022/06/17 08:45:55;;;;;;;1.95;1.10;;;;;;;33.41;18.78;99024.53;5087873;28;20048;-70
2022/06/17 08:48:48;;;;;;;4.47;1.42;;;;;;;33.32;19.23;99038.22;5071257;28;20547;-70
2022/06/17 08:51:26;;;;;;;3.78;1.15;;;;;;;33.31;19.54;99044.88;5071596;28;20040;-70
2022/06/17 08:54:28;;;;;;;1.73;1.25;;;;;;;33.34;20.21;99043.41;5071344;28;20048;-75
2022/06/17 08:57:11;;;;;;;5.30;1.30;;;;;;;33.09;20.96;99047.72;5070966;28;20063;-70
2022/06/17 08:59:54;;;;;;;8.15;1.40;;;;;;;32.28;23.25;99060.03;5038171;28;20500;-73
2022/06/17 09:02:42;;;;;;;7.25;4.25;;;;;;;31.76;25.05;99052.50;5021057;28;20040;-70
2022/06/17 09:05:19;;;;;;;8.93;2.55;;;;;;;31.20;26.27;99056.75;5054183;28;20074;-69
2022/06/17 09:08:04;;;;;;;7.28;2.10;;;;;;;30.27;26.96;99040.69;5070800;28;20086;-70
2022/06/17 09:10:32;;;;;;;6.57;2.08;;;;;;;29.63;26.34;99049.59;5037322;28;20102;-69
2022/06/17 09:13:10;;;;;;;4.28;1.20;;;;;;;28.13;28.64;99065.72;5020579;28;20041;-70
2022/06/17 09:15:43;;;;;;;9.30;1.33;;;;;;;27.40;29.83;99099.44;5054487;28;20040;-76
2022/06/17 09:18:33;;;;;;;2.00;0.90;;;;;;;24.65;34.00;99076.16;5054782;28;20044;-69
2022/06/17 09:21:21;;;;;;;1.95;0.70;;;;;;;24.25;44.40;99078.59;5054107;28;20052;-69
2022/06/17 09:23:48;;;;;;;1.20;1.10;;;;;;;23.85;46.61;99073.63;5070350;28;20146;-68
2022/06/17 09:26:30;;;;;;;3.05;1.08;;;;;;;23.34;41.09;99057.88;5053803;28;20052;-68
2022/06/17 09:29:00;;;;;;;2.35;1.33;;;;;;;23.33;42.55;99077.13;5070211;28;20048;-69
2022/06/17 09:31:41;;;;;;;1.92;1.30;;;;;;;23.88;41.21;99080.44;5070854;28;20063;-69
2022/06/17 09:34:10;;;;;;;4.30;1.20;;;;;;;24.73;40.48;99076.53;5049403;28;20503;-73
2022/06/17 09:36:46;;;;;;;4.40;1.42;;;;;;;25.50;37.58;99092.94;5073365;28;20113;-71
2022/06/17 09:39:17;;;;;;;7.88;1.90;;;;;;;27.25;34.78;99097.59;5087222;28;20043;-68
2022/06/17 09:41:51;;;;;;;3.92;1.60;;;;;;;28.79;30.11;99096.81;5052537;28;20319;-69
2022/06/17 09:44:29;;;;;;;6.00;1.33;;;;;;;30.00;27.08;99095.34;5069618;28;20047;-69
2022/06/17 09:47:05;;;;;;;7.18;1.95;;;;;;;30.56;26.38;99094.16;5069672;28;20045;-69
2022/06/17 09:49:47;;;;;;;7.55;2.08;;;;;;;30.92;26.61;99116.28;5068127;28;20056;-69
2022/06/17 09:52:30;;;;;;;5.20;1.40;;;;;;;31.60;25.99;99097.09;5020373;28;20064;-69
2022/06/17 09:55:16;;;;;;;4.63;1.90;;;;;;;32.18;24.78;99073.22;5053593;28;20067;-69
2022/06/17 09:58:06;;;;;;;1.75;1.25;;;;;;;32.68;23.97;99086.53;5052672;28;20515;-70
2022/06/17 10:00:43;;;;;;;3.75;1.40;;;;;;;33.48;21.62;99089.00;5022994;28;20090;-69
2022/06/17 10:03:15;;;;;;;2.28;1.20;;;;;;;33.52;22.09;99087.22;5051079;28;20108;-70
2022/06/17 10:06:04;;;;;;;1.65;1.10;;;;;;;33.74;21.44;99089.84;5070198;28;20047;-69
2022/06/17 10:08:48;;;;;;;0.80;0.80;;;;;;;32.83;22.08;99082.53;5049642;28;20060;-72
2022/06/17 10:11:46;;;;;;;2.85;0.70;;;;;;;32.90;21.70;99082.94;5068289;28;20500;-70
2022/06/17 10:14:21;;;;;;;3.20;1.10;;;;;;;33.37;21.48;99084.88;5069161;28;20040;-68
2022/06/17 10:20:38;;;;;;;3.55;1.00;;;;;;;34.36;20.01;99073.81;5060989;28;20102;-70
2022/06/17 10:23:23;;;;;;;2.25;1.20;;;;;;;35.47;19.16;99054.94;5018483;28;20184;-70
2022/06/17 10:26:08;;;;;;;3.28;1.20;;;;;;;36.23;18.08;99043.63;5051785;28;20095;-70
2022/06/17 10:29:09;;;;;;;6.18;1.40;;;;;;;38.00;16.95;99049.97;5051130;28;20098;-72
2022/06/17 10:31:37;;;;;;;3.90;0.90;;;;;;;39.61;15.70;99039.53;5035414;28;20045;-72
2022/06/17 10:34:29;;;;;;;2.72;1.20;;;;;;;40.37;14.69;99038.81;5035359;28;20090;-72
2022/06/17 10:36:59;;;;;;;4.82;1.48;;;;;;;41.19;14.58;99037.13;5068510;28;20142;-72
2022/06/17 10:39:27;;;;;;;4.28;1.50;;;;;;;42.72;13.41;99042.34;5049420;28;20113;-72
2022/06/17 10:41:53;;;;;;;2.85;2.00;;;;;;;43.07;12.86;99030.69;5067559;28;20048;-71
2022/06/17 10:44:25;;;;;;;2.72;1.60;;;;;;;44.39;12.27;99029.88;5051388;28;20483;-72
2022/06/17 10:47:05;;;;;;;9.15;1.20;;;;;;;44.55;11.33;99032.28;5050814;28;20048;-72
2022/06/17 10:49:37;;;;;;;4.75;1.30;;;;;;;43.65;11.86;99020.34;5067498;28;20057;-71
2022/06/17 10:52:37;;;;;;;5.05;1.40;;;;;;;41.97;12.50;99027.09;5068871;28;20049;-71
2022/06/17 10:55:06;;;;;;;4.15;1.50;;;;;;;40.18;14.17;99016.56;5049056;28;20079;-71
2022/06/17 10:57:37;;;;;;;5.18;1.58;;;;;;;39.74;14.74;99010.44;5051334;28;20048;-71
2022/06/17 11:00:26;;;;;;;3.55;1.40;;;;;;;39.02;15.68;99004.78;5051724;28;20043;-71
2022/06/17 11:02:52;;;;;;;2.23;1.30;;;;;;;38.08;16.26;98995.50;5050459;28;20117;-72
2022/06/17 11:05:31;;;;;;;1.70;1.33;;;;;;;37.45;16.74;99005.50;5034799;28;20127;-71
2022/06/17 11:07:57;;;;;;;4.05;1.60;;;;;;;36.59;17.61;99005.81;5050637;28;20852;-71
2022/06/17 11:10:30;;;;;;;3.47;1.20;;;;;;;35.94;18.02;99003.06;5033848;28;20136;-72
2022/06/17 11:13:01;;;;;;;3.22;1.60;;;;;;;35.36;18.70;99009.53;5066934;28;20601;-71
2022/06/17 11:15:30;;;;;;;3.83;1.40;;;;;;;35.22;18.79;99008.94;5034869;28;20156;-71
2022/06/17 11:18:27;;;;;;;7.47;1.42;;;;;;;34.75;19.72;98996.31;5050890;28;20468;-71
2022/06/17 11:20:56;;;;;;;2.35;1.30;;;;;;;34.18;19.79;98990.31;5031042;28;20058;-70
2022/06/17 11:23:34;;;;;;;2.55;1.15;;;;;;;34.31;19.29;98994.00;5049955;28;20662;-70
2022/06/17 11:26:09;;;;;;;1.58;1.20;;;;;;;33.86;19.90;98993.56;5050441;28;20048;-72
2022/06/17 11:28:39;;;;;;;3.67;1.20;;;;;;;33.41;20.38;98977.72;5017740;28;20070;-72
2022/06/17 11:31:28;;;;;;;4.40;1.60;;;;;;;33.30;20.13;98995.63;5050885;28;20047;-71
2022/06/17 11:33:54;;;;;;;2.72;1.50;;;;;;;32.77;20.28;98953.75;5054573;28;20068;-71
2022/06/17 11:36:32;;;;;;;5.20;1.50;;;;;;;33.02;20.53;98981.34;5051095;28;20049;-71
2022/06/17 11:39:25;;;;;;;3.97;1.63;;;;;;;33.00;21.23;98963.53;5051266;28;20504;-69
2022/06/17 11:41:51;;;;;;;3.33;1.60;;;;;;;32.36;21.63;98959.53;5050130;28;20041;-70
2022/06/17 11:44:18;;;;;;;4.45;1.35;;;;;;;32.00;22.30;98961.59;5067078;28;20048;-69
2022/06/17 11:47:05;;;;;;;4.10;1.40;;;;;;;31.56;22.50;98983.50;5051202;28;20044;-71
2022/06/17 11:49:36;;;;;;;2.15;1.00;;;;;;;31.09;23.33;98976.59;5033694;28;20058;-72
2022/06/17 11:52:07;;;;;;;1.83;1.20;;;;;;;30.57;24.52;98960.63;5049970;28;20052;-70
2022/06/17 11:54:33;;;;;;;;;;;;;;;30.00;25.25;98970.16;5054185;28;20036;-71
2022/06/17 11:57:13;;;;;;;8.65;1.40;;;;;;;29.79;27.08;98959.84;5070762;28;19926;-70
2022/06/17 11:59:43;;;;;;;6.35;1.85;;;;;;;29.52;27.89;98964.06;5073370;28;20043;-69
2022/06/17 12:02:09;;;;;;;3.15;1.48;;;;;;;29.16;27.88;98960.22;5090572;28;20563;-67
2022/06/17 12:04:46;;;;;;;3.15;1.40;;;;;;;28.77;28.08;98976.00;5037000;28;20421;-68
2022/06/17 12:07:36;;;;;;;5.55;1.50;;;;;;;28.82;27.74;98997.84;5054769;28;20048;-70
2022/06/17 12:10:14;;;;;;;2.75;1.50;;;;;;;28.68;28.76;98966.00;5053464;28;20250;-70
2022/06/17 12:12:41;;;;;;;3.25;1.30;;;;;;;28.30;29.18;98978.72;5053056;28;20369;-72
2022/06/17 12:15:25;;;;;;;2.35;1.48;;;;;;;28.33;29.41;98961.75;5021837;28;20139;-69
2022/06/17 12:17:52;;;;;;;4.43;1.50;;;;;;;27.91;30.64;98951.50;5071174;28;20068;-70